sensor_id;sensor_type;location;lat;lon;timestamp;pressure;altitude;pressure_sealevel;temperature;humidity
27805;BME280;15183;51.350;11.102;2023-07-28T00:00:36;98952.41;;;22.36;69.44
27805;BME280;15183;51.350;11.102;2023-07-28T00:03:02;98928.94;;;22.06;69.26
27805;BME280;15183;51.350;11.102;2023-07-28T00:05:29;98930.13;;;22.18;69.32
27805;BME280;15183;51.350;11.102;2023-07-28T00:07:55;98913.44;;;21.94;69.53
27805;BME280;15183;51.350;11.102;2023-07-28T00:10:22;98941.53;;;22.23;69.37
27805;BME280;15183;51.350;11.102;2023-07-28T00:12:48;98936.16;;;22.23;68.88
27805;BME280;15183;51.350;11.102;2023-07-28T00:15:15;98947.34;;;22.34;69.35
27805;BME280;15183;51.350;11.102;2023-07-28T00:17:41;98945.59;;;22.38;69.39
27805;BME280;15183;51.350;11.102;2023-07-28T00:20:09;98946.88;;;22.32;69.20
27805;BME280;15183;51.350;11.102;2023-07-28T00:22:35;98921.84;;;22.23;68.85
27805;BME280;15183;51.350;11.102;2023-07-28T00:25:02;98950.66;;;22.40;68.84
27805;BME280;15183;51.350;11.102;2023-07-28T00:27:29;98947.47;;;22.38;68.61
27805;BME280;15183;51.350;11.102;2023-07-28T00:29:55;98930.69;;;22.32;68.88
27805;BME280;15183;51.350;11.102;2023-07-28T00:32:21;98934.66;;;22.35;68.53
27805;BME280;15183;51.350;11.102;2023-07-28T00:34:48;98915.50;;;22.27;68.61
27805;BME280;15183;51.350;11.102;2023-07-28T00:37:14;98902.84;;;22.19;68.48
27805;BME280;15183;51.350;11.102;2023-07-28T00:39:41;98940.31;;;22.42;69.04
27805;BME280;15183;51.350;11.102;2023-07-28T00:42:07;98928.44;;;22.34;68.88
27805;BME280;15183;51.350;11.102;2023-07-28T00:44:35;98926.34;;;22.40;69.01
27805;BME280;15183;51.350;11.102;2023-07-28T00:47:02;98927.16;;;22.40;68.85
27805;BME280;15183;51.350;11.102;2023-07-28T00:49:29;98945.88;;;22.46;69.16
27805;BME280;15183;51.350;11.102;2023-07-28T00:51:56;98949.38;;;22.46;68.66
27805;BME280;15183;51.350;11.102;2023-07-28T00:54:24;98938.25;;;22.48;68.92
27805;BME280;15183;51.350;11.102;2023-07-28T00:56:50;98934.13;;;22.41;68.42
27805;BME280;15183;51.350;11.102;2023-07-28T00:59:17;98937.31;;;22.44;68.60
27805;BME280;15183;51.350;11.102;2023-07-28T01:01:44;98884.94;;;22.15;68.81
27805;BME280;15183;51.350;11.102;2023-07-28T01:04:10;98876.56;;;22.07;68.72
27805;BME280;15183;51.350;11.102;2023-07-28T01:07:09;98926.69;;;22.38;68.57
27805;BME280;15183;51.350;11.102;2023-07-28T01:09:46;98920.84;;;22.36;68.93
27805;BME280;15183;51.350;11.102;2023-07-28T01:12:16;98933.78;;;22.43;68.93
27805;BME280;15183;51.350;11.102;2023-07-28T01:14:43;98914.94;;;22.34;68.67
27805;BME280;15183;51.350;11.102;2023-07-28T01:17:11;98905.63;;;22.32;68.43
27805;BME280;15183;51.350;11.102;2023-07-28T01:19:37;98923.34;;;22.41;68.63
27805;BME280;15183;51.350;11.102;2023-07-28T01:28:04;98893.44;;;22.25;68.59
27805;BME280;15183;51.350;11.102;2023-07-28T01:30:32;98929.50;;;22.42;69.06
27805;BME280;15183;51.350;11.102;2023-07-28T01:32:58;98924.47;;;22.40;68.36
27805;BME280;15183;51.350;11.102;2023-07-28T01:35:27;98924.13;;;22.42;68.34
27805;BME280;15183;51.350;11.102;2023-07-28T01:37:54;98905.16;;;22.30;68.68
27805;BME280;15183;51.350;11.102;2023-07-28T01:40:20;98930.47;;;22.46;68.58
27805;BME280;15183;51.350;11.102;2023-07-28T01:42:47;98933.03;;;22.43;68.77
27805;BME280;15183;51.350;11.102;2023-07-28T01:45:13;98924.47;;;22.40;68.42
27805;BME280;15183;51.350;11.102;2023-07-28T01:47:40;98927.28;;;22.44;68.80
27805;BME280;15183;51.350;11.102;2023-07-28T01:50:06;98910.22;;;22.31;68.68
27805;BME280;15183;51.350;11.102;2023-07-28T01:52:33;98938.25;;;22.48;68.91
27805;BME280;15183;51.350;11.102;2023-07-28T01:54:59;98929.19;;;22.44;68.54
27805;BME280;15183;51.350;11.102;2023-07-28T01:57:27;98921.31;;;22.38;68.51
27805;BME280;15183;51.350;11.102;2023-07-28T01:59:54;98915.75;;;22.35;68.56
27805;BME280;15183;51.350;11.102;2023-07-28T02:02:21;98899.41;;;22.31;68.39
27805;BME280;15183;51.350;11.102;2023-07-28T02:04:47;98924.47;;;22.40;68.41
27805;BME280;15183;51.350;11.102;2023-07-28T02:07:13;98897.63;;;22.14;68.11
27805;BME280;15183;51.350;11.102;2023-07-28T02:09:40;98926.25;;;22.36;68.19
27805;BME280;15183;51.350;11.102;2023-07-28T02:12:06;98940.50;;;22.46;67.98
27805;BME280;15183;51.350;11.102;2023-07-28T02:14:33;98890.16;;;22.11;68.27
27805;BME280;15183;51.350;11.102;2023-07-28T02:16:59;98905.94;;;22.30;68.01
27805;BME280;15183;51.350;11.102;2023-07-28T02:19:26;98904.44;;;22.41;68.30
27805;BME280;15183;51.350;11.102;2023-07-28T02:21:52;98908.91;;;22.37;67.88
27805;BME280;15183;51.350;11.102;2023-07-28T02:24:19;98917.59;;;22.43;68.17
27805;BME280;15183;51.350;11.102;2023-07-28T02:26:45;98888.56;;;22.19;68.59
27805;BME280;15183;51.350;11.102;2023-07-28T02:29:11;98922.69;;;22.45;68.12
27805;BME280;15183;51.350;11.102;2023-07-28T02:31:38;98918.44;;;22.35;68.24
27805;BME280;15183;51.350;11.102;2023-07-28T02:34:04;98927.81;;;22.37;68.36
27805;BME280;15183;51.350;11.102;2023-07-28T02:36:31;98907.25;;;22.24;67.96
27805;BME280;15183;51.350;11.102;2023-07-28T02:38:58;98902.66;;;22.24;68.23
27805;BME280;15183;51.350;11.102;2023-07-28T02:41:24;98926.28;;;22.27;68.28
27805;BME280;15183;51.350;11.102;2023-07-28T02:43:50;98906.66;;;22.18;68.22
27805;BME280;15183;51.350;11.102;2023-07-28T02:46:17;98927.25;;;22.23;68.39
27805;BME280;15183;51.350;11.102;2023-07-28T02:48:43;98912.53;;;22.20;68.33
27805;BME280;15183;51.350;11.102;2023-07-28T02:51:09;98912.53;;;22.20;68.17
27805;BME280;15183;51.350;11.102;2023-07-28T02:53:36;98936.72;;;22.29;68.17
27805;BME280;15183;51.350;11.102;2023-07-28T02:56:02;98946.41;;;22.30;68.37
27805;BME280;15183;51.350;11.102;2023-07-28T02:58:29;98935.81;;;22.25;68.04
27805;BME280;15183;51.350;11.102;2023-07-28T03:00:55;98942.97;;;22.21;68.50
27805;BME280;15183;51.350;11.102;2023-07-28T03:03:22;98908.66;;;22.00;68.08
27805;BME280;15183;51.350;11.102;2023-07-28T03:05:52;98931.34;;;21.99;68.32
27805;BME280;15183;51.350;11.102;2023-07-28T03:08:20;98962.38;;;22.14;68.75
27805;BME280;15183;51.350;11.102;2023-07-28T03:10:46;98942.16;;;21.99;68.35
27805;BME280;15183;51.350;11.102;2023-07-28T03:13:13;98969.16;;;21.90;68.81
27805;BME280;15183;51.350;11.102;2023-07-28T03:15:39;98968.88;;;21.74;69.23
27805;BME280;15183;51.350;11.102;2023-07-28T03:18:06;98958.91;;;21.48;69.86
27805;BME280;15183;51.350;11.102;2023-07-28T03:20:32;98973.03;;;21.45;70.15
27805;BME280;15183;51.350;11.102;2023-07-28T03:22:58;98967.22;;;21.25;70.52
27805;BME280;15183;51.350;11.102;2023-07-28T03:25:25;98983.03;;;21.18;70.70
27805;BME280;15183;51.350;11.102;2023-07-28T03:27:51;98959.00;;;20.95;71.46
27805;BME280;15183;51.350;11.102;2023-07-28T03:30:19;98963.91;;;20.93;71.70
27805;BME280;15183;51.350;11.102;2023-07-28T03:32:45;98976.41;;;20.98;71.35
27805;BME280;15183;51.350;11.102;2023-07-28T03:35:11;98948.16;;;20.78;71.70
27805;BME280;15183;51.350;11.102;2023-07-28T03:37:39;98946.41;;;20.64;72.18
27805;BME280;15183;51.350;11.102;2023-07-28T03:40:06;98972.25;;;20.83;72.10
27805;BME280;15183;51.350;11.102;2023-07-28T03:42:33;98983.03;;;20.83;72.20
27805;BME280;15183;51.350;11.102;2023-07-28T03:45:00;98967.81;;;20.70;72.10
27805;BME280;15183;51.350;11.102;2023-07-28T03:47:26;98982.56;;;20.81;72.40
27805;BME280;15183;51.350;11.102;2023-07-28T03:49:52;98975.41;;;20.76;72.27
27805;BME280;15183;51.350;11.102;2023-07-28T03:52:19;98985.25;;;20.81;72.11
27805;BME280;15183;51.350;11.102;2023-07-28T03:54:45;98987.94;;;20.81;72.39
27805;BME280;15183;51.350;11.102;2023-07-28T03:57:12;98964.94;;;20.75;72.26
27805;BME280;15183;51.350;11.102;2023-07-28T03:59:38;98972.59;;;20.81;72.25
27805;BME280;15183;51.350;11.102;2023-07-28T04:02:05;98975.31;;;20.90;72.47
27805;BME280;15183;51.350;11.102;2023-07-28T04:04:31;98973.72;;;20.89;72.36
27805;BME280;15183;51.350;11.102;2023-07-28T04:06:58;98982.25;;;21.00;72.56
27805;BME280;15183;51.350;11.102;2023-07-28T04:09:24;98976.25;;;20.94;72.04
27805;BME280;15183;51.350;11.102;2023-07-28T04:11:50;98981.94;;;21.02;72.18
27805;BME280;15183;51.350;11.102;2023-07-28T04:14:17;98970.22;;;20.98;72.15
27805;BME280;15183;51.350;11.102;2023-07-28T04:16:43;98947.91;;;20.88;71.84
27805;BME280;15183;51.350;11.102;2023-07-28T04:19:10;98951.84;;;20.91;72.12
27805;BME280;15183;51.350;11.102;2023-07-28T04:21:36;98928.69;;;20.72;72.08
27805;BME280;15183;51.350;11.102;2023-07-28T04:24:07;98942.63;;;20.74;72.00
27805;BME280;15183;51.350;11.102;2023-07-28T04:26:34;98981.16;;;21.01;72.42
27805;BME280;15183;51.350;11.102;2023-07-28T04:29:00;98977.03;;;21.04;71.91
27805;BME280;15183;51.350;11.102;2023-07-28T04:31:27;98965.94;;;20.96;71.88
27805;BME280;15183;51.350;11.102;2023-07-28T04:33:53;98983.84;;;21.10;71.83
27805;BME280;15183;51.350;11.102;2023-07-28T04:36:20;98964.38;;;21.04;71.82
27805;BME280;15183;51.350;11.102;2023-07-28T04:38:46;98933.44;;;20.75;71.86
27805;BME280;15183;51.350;11.102;2023-07-28T04:41:12;98990.81;;;21.11;71.39
27805;BME280;15183;51.350;11.102;2023-07-28T04:43:39;98998.44;;;21.27;71.67
27805;BME280;15183;51.350;11.102;2023-07-28T04:46:05;98968.31;;;21.16;71.63
27805;BME280;15183;51.350;11.102;2023-07-28T04:48:32;99001.75;;;21.41;71.06
27805;BME280;15183;51.350;11.102;2023-07-28T04:50:58;98999.22;;;21.45;70.93
27805;BME280;15183;51.350;11.102;2023-07-28T04:53:24;98975.44;;;21.38;70.82
27805;BME280;15183;51.350;11.102;2023-07-28T04:55:51;99014.88;;;21.60;71.11
27805;BME280;15183;51.350;11.102;2023-07-28T04:58:17;99020.72;;;21.62;70.77
27805;BME280;15183;51.350;11.102;2023-07-28T05:00:44;98954.69;;;21.30;70.71
27805;BME280;15183;51.350;11.102;2023-07-28T05:03:10;98963.38;;;21.44;70.70
27805;BME280;15183;51.350;11.102;2023-07-28T05:05:36;99006.75;;;21.87;70.51
27805;BME280;15183;51.350;11.102;2023-07-28T05:08:03;99016.09;;;21.98;70.13
27805;BME280;15183;51.350;11.102;2023-07-28T05:10:30;99021.09;;;22.17;70.23
27805;BME280;15183;51.350;11.102;2023-07-28T05:12:57;99013.56;;;22.32;70.23
27805;BME280;15183;51.350;11.102;2023-07-28T05:15:24;98973.16;;;22.14;70.05
27805;BME280;15183;51.350;11.102;2023-07-28T05:17:50;98986.38;;;22.37;69.74
27805;BME280;15183;51.350;11.102;2023-07-28T05:20:17;98978.56;;;22.44;69.43
27805;BME280;15183;51.350;11.102;2023-07-28T05:22:43;99011.28;;;22.73;69.27
27805;BME280;15183;51.350;11.102;2023-07-28T05:25:10;99018.63;;;22.93;69.46
27805;BME280;15183;51.350;11.102;2023-07-28T05:27:36;98977.03;;;22.64;69.04
27805;BME280;15183;51.350;11.102;2023-07-28T05:30:03;99000.38;;;22.90;69.04
27805;BME280;15183;51.350;11.102;2023-07-28T05:32:29;99032.16;;;23.15;69.00
27805;BME280;15183;51.350;11.102;2023-07-28T05:34:56;99022.25;;;23.19;68.61
27805;BME280;15183;51.350;11.102;2023-07-28T05:37:22;99026.97;;;23.31;68.77
27805;BME280;15183;51.350;11.102;2023-07-28T05:39:49;99046.94;;;23.72;68.93
27805;BME280;15183;51.350;11.102;2023-07-28T05:42:15;99044.09;;;24.02;68.50
27805;BME280;15183;51.350;11.102;2023-07-28T05:44:41;99041.31;;;24.23;67.83
27805;BME280;15183;51.350;11.102;2023-07-28T05:47:08;99008.81;;;24.36;68.49
27805;BME280;15183;51.350;11.102;2023-07-28T05:49:36;99039.25;;;24.95;67.76
27805;BME280;15183;51.350;11.102;2023-07-28T05:52:02;99027.25;;;25.08;66.76
27805;BME280;15183;51.350;11.102;2023-07-28T05:54:29;99005.13;;;25.06;66.25
27805;BME280;15183;51.350;11.102;2023-07-28T05:56:55;99027.88;;;25.30;66.40
27805;BME280;15183;51.350;11.102;2023-07-28T05:59:22;99038.03;;;25.33;65.67
27805;BME280;15183;51.350;11.102;2023-07-28T06:01:48;98994.06;;;24.99;65.15
27805;BME280;15183;51.350;11.102;2023-07-28T06:04:15;99023.72;;;25.20;65.15
27805;BME280;15183;51.350;11.102;2023-07-28T06:06:42;99033.47;;;25.09;64.53
27805;BME280;15183;51.350;11.102;2023-07-28T06:09:08;99050.44;;;25.06;64.45
27805;BME280;15183;51.350;11.102;2023-07-28T06:11:34;99034.41;;;25.00;64.40
27805;BME280;15183;51.350;11.102;2023-07-28T06:14:01;99066.00;;;25.09;64.42
27805;BME280;15183;51.350;11.102;2023-07-28T06:16:27;99069.41;;;25.06;64.03
27805;BME280;15183;51.350;11.102;2023-07-28T06:18:54;99060.59;;;24.96;63.44
27805;BME280;15183;51.350;11.102;2023-07-28T06:21:20;99065.03;;;24.89;63.65
27805;BME280;15183;51.350;11.102;2023-07-28T06:23:46;99071.34;;;24.80;63.76
27805;BME280;15183;51.350;11.102;2023-07-28T06:26:13;99033.88;;;24.45;63.52
27805;BME280;15183;51.350;11.102;2023-07-28T06:28:39;99054.88;;;24.48;63.57
27805;BME280;15183;51.350;11.102;2023-07-28T06:31:06;99084.78;;;24.64;63.20
27805;BME280;15183;51.350;11.102;2023-07-28T06:33:32;99016.94;;;24.11;63.50
27805;BME280;15183;51.350;11.102;2023-07-28T06:35:59;99084.22;;;24.46;63.49
27805;BME280;15183;51.350;11.102;2023-07-28T06:38:25;99087.25;;;24.45;63.46
27805;BME280;15183;51.350;11.102;2023-07-28T06:40:52;99064.22;;;24.26;63.50
27805;BME280;15183;51.350;11.102;2023-07-28T06:43:19;99072.22;;;24.22;63.41
27805;BME280;15183;51.350;11.102;2023-07-28T06:45:46;99078.53;;;24.26;63.66
27805;BME280;15183;51.350;11.102;2023-07-28T06:48:12;99020.63;;;23.94;63.19
27805;BME280;15183;51.350;11.102;2023-07-28T06:50:39;99044.56;;;24.17;62.72
27805;BME280;15183;51.350;11.102;2023-07-28T06:53:05;99083.06;;;24.47;62.94
27805;BME280;15183;51.350;11.102;2023-07-28T06:55:31;99064.13;;;24.47;62.94
27805;BME280;15183;51.350;11.102;2023-07-28T06:57:58;99082.50;;;24.66;62.79
27805;BME280;15183;51.350;11.102;2023-07-28T07:00:24;99023.47;;;24.35;63.03
27805;BME280;15183;51.350;11.102;2023-07-28T07:02:51;99080.59;;;24.79;63.00
27805;BME280;15183;51.350;11.102;2023-07-28T07:05:17;99068.63;;;24.80;62.59
27805;BME280;15183;51.350;11.102;2023-07-28T07:07:43;99056.78;;;24.85;62.49
27805;BME280;15183;51.350;11.102;2023-07-28T07:10:10;99032.75;;;24.83;62.79
27805;BME280;15183;51.350;11.102;2023-07-28T07:12:36;99079.47;;;25.34;63.11
27805;BME280;15183;51.350;11.102;2023-07-28T07:15:04;99069.59;;;25.54;62.60
27805;BME280;15183;51.350;11.102;2023-07-28T07:17:32;99079.22;;;25.80;62.25
27805;BME280;15183;51.350;11.102;2023-07-28T07:19:59;99072.06;;;25.88;62.17
27805;BME280;15183;51.350;11.102;2023-07-28T07:22:25;99049.81;;;25.98;62.55
27805;BME280;15183;51.350;11.102;2023-07-28T07:24:51;99060.28;;;26.28;62.10
27805;BME280;15183;51.350;11.102;2023-07-28T07:27:18;99044.41;;;26.30;62.12
27805;BME280;15183;51.350;11.102;2023-07-28T07:29:44;99060.56;;;26.75;62.05
27805;BME280;15183;51.350;11.102;2023-07-28T07:32:11;99085.75;;;27.07;61.51
27805;BME280;15183;51.350;11.102;2023-07-28T07:34:38;99110.59;;;27.25;61.23
27805;BME280;15183;51.350;11.102;2023-07-28T07:37:05;99068.94;;;27.21;61.00
27805;BME280;15183;51.350;11.102;2023-07-28T07:39:31;99094.38;;;27.49;59.87
27805;BME280;15183;51.350;11.102;2023-07-28T07:41:59;99028.09;;;27.18;59.83
27805;BME280;15183;51.350;11.102;2023-07-28T07:44:27;99092.59;;;27.76;59.33
27805;BME280;15183;51.350;11.102;2023-07-28T07:46:53;99110.34;;;27.90;59.58
27805;BME280;15183;51.350;11.102;2023-07-28T07:49:19;99091.59;;;28.08;57.84
27805;BME280;15183;51.350;11.102;2023-07-28T07:51:46;99098.84;;;28.20;57.70
27805;BME280;15183;51.350;11.102;2023-07-28T07:54:12;99101.31;;;28.28;56.59
27805;BME280;15183;51.350;11.102;2023-07-28T07:56:42;99099.69;;;28.24;55.64
27805;BME280;15183;51.350;11.102;2023-07-28T07:59:08;99092.19;;;27.97;55.37
27805;BME280;15183;51.350;11.102;2023-07-28T08:01:35;99095.53;;;27.87;55.35
27805;BME280;15183;51.350;11.102;2023-07-28T08:04:01;99096.47;;;27.75;55.45
27805;BME280;15183;51.350;11.102;2023-07-28T08:06:28;99111.53;;;27.69;55.83
27805;BME280;15183;51.350;11.102;2023-07-28T08:08:55;99098.69;;;27.50;56.20
27805;BME280;15183;51.350;11.102;2023-07-28T08:11:23;99044.03;;;27.19;56.01
27805;BME280;15183;51.350;11.102;2023-07-28T08:13:49;99093.19;;;27.66;55.88
27805;BME280;15183;51.350;11.102;2023-07-28T08:16:15;99103.53;;;27.80;55.82
27805;BME280;15183;51.350;11.102;2023-07-28T08:18:42;99118.81;;;28.08;55.60
27805;BME280;15183;51.350;11.102;2023-07-28T08:21:08;99109.81;;;28.23;54.98
27805;BME280;15183;51.350;11.102;2023-07-28T08:23:35;99130.59;;;28.35;54.70
27805;BME280;15183;51.350;11.102;2023-07-28T08:26:01;99099.97;;;28.19;53.86
27805;BME280;15183;51.350;11.102;2023-07-28T08:28:27;99057.97;;;27.77;54.08
27805;BME280;15183;51.350;11.102;2023-07-28T08:30:55;99121.44;;;28.00;53.93
27805;BME280;15183;51.350;11.102;2023-07-28T08:33:50;99121.44;;;27.81;54.35
27805;BME280;15183;51.350;11.102;2023-07-28T08:36:17;99124.03;;;27.73;54.42
27805;BME280;15183;51.350;11.102;2023-07-28T08:38:43;99123.56;;;27.68;53.83
27805;BME280;15183;51.350;11.102;2023-07-28T08:41:12;99116.16;;;27.68;53.77
27805;BME280;15183;51.350;11.102;2023-07-28T08:43:40;99116.97;;;27.69;53.46
27805;BME280;15183;51.350;11.102;2023-07-28T08:46:06;99123.56;;;27.68;53.91
27805;BME280;15183;51.350;11.102;2023-07-28T08:48:33;99142.19;;;27.66;53.88
27805;BME280;15183;51.350;11.102;2023-07-28T08:50:59;99117.44;;;27.35;53.32
27805;BME280;15183;51.350;11.102;2023-07-28T08:53:26;99139.69;;;27.41;54.21
27805;BME280;15183;51.350;11.102;2023-07-28T08:55:52;99128.59;;;27.30;53.78
27805;BME280;15183;51.350;11.102;2023-07-28T08:58:21;99136.22;;;27.24;54.05
27805;BME280;15183;51.350;11.102;2023-07-28T09:00:49;99140.81;;;27.20;54.38
27805;BME280;15183;51.350;11.102;2023-07-28T09:03:17;99155.22;;;27.21;54.41
27805;BME280;15183;51.350;11.102;2023-07-28T09:05:44;99164.56;;;27.23;53.96
27805;BME280;15183;51.350;11.102;2023-07-28T09:08:13;99163.44;;;27.24;53.84
27805;BME280;15183;51.350;11.102;2023-07-28T09:13:10;99171.69;;;27.28;53.54
27805;BME280;15183;51.350;11.102;2023-07-28T09:15:39;99163.94;;;27.30;53.48
27805;BME280;15183;51.350;11.102;2023-07-28T09:18:16;99149.59;;;27.29;53.57
27805;BME280;15183;51.350;11.102;2023-07-28T09:20:43;99168.31;;;27.51;53.17
27805;BME280;15183;51.350;11.102;2023-07-28T09:23:12;99175.41;;;27.55;52.73
27805;BME280;15183;51.350;11.102;2023-07-28T09:25:39;99165.31;;;27.56;52.84
27805;BME280;15183;51.350;11.102;2023-07-28T09:28:06;99187.06;;;27.76;52.66
27805;BME280;15183;51.350;11.102;2023-07-28T09:30:47;99174.31;;;27.80;52.75
27805;BME280;15183;51.350;11.102;2023-07-28T09:33:33;99169.94;;;27.95;53.07
27805;BME280;15183;51.350;11.102;2023-07-28T09:36:12;99181.28;;;28.16;53.67
27805;BME280;15183;51.350;11.102;2023-07-28T09:38:41;99179.66;;;28.35;52.80
27805;BME280;15183;51.350;11.102;2023-07-28T09:41:09;99186.31;;;28.61;53.09
27805;BME280;15183;51.350;11.102;2023-07-28T09:43:39;99182.00;;;28.80;52.51
27805;BME280;15183;51.350;11.102;2023-07-28T09:46:09;99164.47;;;28.81;52.38
27805;BME280;15183;51.350;11.102;2023-07-28T09:48:38;99157.06;;;28.81;51.80
27805;BME280;15183;51.350;11.102;2023-07-28T09:51:18;99176.94;;;29.09;52.23
27805;BME280;15183;51.350;11.102;2023-07-28T09:53:53;99165.50;;;29.26;51.80
27805;BME280;15183;51.350;11.102;2023-07-28T09:56:27;99163.66;;;29.34;51.74
27805;BME280;15183;51.350;11.102;2023-07-28T09:58:57;99151.53;;;29.58;51.36
27805;BME280;15183;51.350;11.102;2023-07-28T10:01:24;99177.03;;;30.04;51.25
27805;BME280;15183;51.350;11.102;2023-07-28T10:03:51;99139.28;;;30.17;50.44
27805;BME280;15183;51.350;11.102;2023-07-28T10:06:19;99165.09;;;30.68;50.28
27805;BME280;15183;51.350;11.102;2023-07-28T10:08:48;99174.28;;;30.94;49.86
27805;BME280;15183;51.350;11.102;2023-07-28T10:11:16;99181.53;;;31.24;49.27
27805;BME280;15183;51.350;11.102;2023-07-28T10:13:44;99169.47;;;31.40;48.83
27805;BME280;15183;51.350;11.102;2023-07-28T10:16:13;99107.53;;;31.06;47.84
27805;BME280;15183;51.350;11.102;2023-07-28T10:18:53;99163.22;;;31.32;47.78
27805;BME280;15183;51.350;11.102;2023-07-28T10:21:20;99138.41;;;31.07;47.92
27805;BME280;15183;51.350;11.102;2023-07-28T10:23:55;99132.41;;;30.83;47.34
27805;BME280;15183;51.350;11.102;2023-07-28T10:26:35;99170.00;;;30.97;47.86
27805;BME280;15183;51.350;11.102;2023-07-28T10:29:13;99159.84;;;30.97;47.00
27805;BME280;15183;51.350;11.102;2023-07-28T10:31:58;99138.34;;;30.99;47.91
27805;BME280;15183;51.350;11.102;2023-07-28T10:34:24;99095.72;;;30.91;46.21
27805;BME280;15183;51.350;11.102;2023-07-28T10:36:58;99147.56;;;31.29;46.39
27805;BME280;15183;51.350;11.102;2023-07-28T10:39:25;99129.84;;;31.15;45.51
27805;BME280;15183;51.350;11.102;2023-07-28T10:42:09;99165.59;;;31.44;46.18
27805;BME280;15183;51.350;11.102;2023-07-28T10:44:37;99157.00;;;31.50;45.61
27805;BME280;15183;51.350;11.102;2023-07-28T10:47:08;99152.34;;;31.61;45.39
27805;BME280;15183;51.350;11.102;2023-07-28T10:49:35;99170.41;;;31.69;45.61
27805;BME280;15183;51.350;11.102;2023-07-28T10:52:02;99170.44;;;31.80;45.17
27805;BME280;15183;51.350;11.102;2023-07-28T10:54:31;99171.28;;;31.92;45.30
27805;BME280;15183;51.350;11.102;2023-07-28T10:57:02;99164.66;;;32.07;45.42
27805;BME280;15183;51.350;11.102;2023-07-28T10:59:30;99141.94;;;32.10;44.91
27805;BME280;15183;51.350;11.102;2023-07-28T11:01:56;99170.19;;;32.51;44.19
27805;BME280;15183;51.350;11.102;2023-07-28T11:04:23;99161.19;;;32.46;43.78
27805;BME280;15183;51.350;11.102;2023-07-28T11:06:50;99178.41;;;32.61;43.72
27805;BME280;15183;51.350;11.102;2023-07-28T11:09:21;99157.28;;;32.51;43.94
27805;BME280;15183;51.350;11.102;2023-07-28T11:11:49;99178.84;;;32.60;43.77
27805;BME280;15183;51.350;11.102;2023-07-28T11:14:17;99169.44;;;32.61;43.38
27805;BME280;15183;51.350;11.102;2023-07-28T11:16:45;99175.28;;;32.70;43.00
27805;BME280;15183;51.350;11.102;2023-07-28T11:19:13;99134.94;;;32.45;43.45
27805;BME280;15183;51.350;11.102;2023-07-28T11:21:42;99133.38;;;32.44;43.29
27805;BME280;15183;51.350;11.102;2023-07-28T11:24:09;99159.63;;;32.78;43.58
27805;BME280;15183;51.350;11.102;2023-07-28T11:26:39;99189.41;;;32.98;42.63
27805;BME280;15183;51.350;11.102;2023-07-28T11:29:06;99168.22;;;32.76;43.43
27805;BME280;15183;51.350;11.102;2023-07-28T11:31:34;99157.28;;;32.62;43.08
27805;BME280;15183;51.350;11.102;2023-07-28T11:34:01;99163.13;;;32.57;43.03
27805;BME280;15183;51.350;11.102;2023-07-28T11:36:29;99179.22;;;32.80;43.72
27805;BME280;15183;51.350;11.102;2023-07-28T11:38:59;99162.34;;;33.00;42.95
27805;BME280;15183;51.350;11.102;2023-07-28T11:41:26;99156.47;;;33.01;42.91
27805;BME280;15183;51.350;11.102;2023-07-28T11:43:53;99140.81;;;32.87;42.35
27805;BME280;15183;51.350;11.102;2023-07-28T11:46:39;99156.47;;;32.90;42.64
27805;BME280;15183;51.350;11.102;2023-07-28T11:49:16;99171.34;;;32.79;44.58
27805;BME280;15183;51.350;11.102;2023-07-28T11:51:53;99176.06;;;32.74;43.04
27805;BME280;15183;51.350;11.102;2023-07-28T11:54:25;99130.63;;;32.33;42.97
27805;BME280;15183;51.350;11.102;2023-07-28T11:56:56;99175.28;;;32.70;43.17
27805;BME280;15183;51.350;11.102;2023-07-28T11:59:22;99114.97;;;32.52;43.10
27805;BME280;15183;51.350;11.102;2023-07-28T12:01:57;99167.81;;;33.00;41.70
27805;BME280;15183;51.350;11.102;2023-07-28T12:04:35;99168.59;;;32.86;42.64
27805;BME280;15183;51.350;11.102;2023-07-28T12:07:16;99179.22;;;32.87;42.20
27805;BME280;15183;51.350;11.102;2023-07-28T12:12:16;99176.84;;;32.93;42.23
27805;BME280;15183;51.350;11.102;2023-07-28T12:14:43;99150.97;;;32.83;42.47
27805;BME280;15183;51.350;11.102;2023-07-28T12:17:21;99174.84;;;33.08;42.24
27805;BME280;15183;51.350;11.102;2023-07-28T12:20:08;99178.38;;;33.12;41.66
27805;BME280;15183;51.350;11.102;2023-07-28T12:22:41;99186.22;;;33.10;40.51
27805;BME280;15183;51.350;11.102;2023-07-28T12:25:08;99141.97;;;32.79;41.04
27805;BME280;15183;51.350;11.102;2023-07-28T12:27:35;99183.88;;;33.05;41.20
27805;BME280;15183;51.350;11.102;2023-07-28T12:30:03;99187.03;;;33.03;40.89
27805;BME280;15183;51.350;11.102;2023-07-28T12:32:30;99183.50;;;32.92;40.63
27805;BME280;15183;51.350;11.102;2023-07-28T12:34:57;99185.09;;;32.89;40.92
27805;BME280;15183;51.350;11.102;2023-07-28T12:37:23;99166.28;;;32.73;41.25
27805;BME280;15183;51.350;11.102;2023-07-28T12:39:49;99182.31;;;32.75;40.81
27805;BME280;15183;51.350;11.102;2023-07-28T12:42:16;99174.88;;;32.54;40.15
27805;BME280;15183;51.350;11.102;2023-07-28T12:44:42;99194.09;;;32.54;40.87
27805;BME280;15183;51.350;11.102;2023-07-28T12:47:09;99190.19;;;32.44;40.89
27805;BME280;15183;51.350;11.102;2023-07-28T12:49:35;99182.31;;;32.28;40.71
27805;BME280;15183;51.350;11.102;2023-07-28T12:52:05;99197.97;;;32.31;40.57
27805;BME280;15183;51.350;11.102;2023-07-28T12:54:35;99181.09;;;32.14;41.37
27805;BME280;15183;51.350;11.102;2023-07-28T12:57:02;99186.97;;;32.09;40.93
27805;BME280;15183;51.350;11.102;2023-07-28T12:59:28;99150.00;;;31.59;40.79
27805;BME280;15183;51.350;11.102;2023-07-28T13:01:56;99193.13;;;31.77;41.19
27805;BME280;15183;51.350;11.102;2023-07-28T13:04:22;99177.41;;;31.59;41.82